Latonia, Mississippi
Current Conditions -  °F | °C
As of 1:56 AM on Friday 24 Oct 2014 (Local Time) from KMOB Reporting Station
Clear Clear  
Wind Chill: 55°   Ceiling: Unl
Heat Index: 55°   Visibility: 10mi
Dew Point: 47°   Wind: 6mph
Humidity: 74%   Direction: 360°N
Pressure: 30.07"   Gusts: NA
Location:  30.8443°N, 88.5703°W
Report Text: KMOB 240656Z AUTO 36005KT 10SM CLR 13/08 A3007 RMK AO2 SLP179 T01280083
Loading
Personal Weather Stations






























Interactive Weather Map
Tropical Storm Tracking
New forecast layout! Learn more

10-Day Weather Forecast

Advertisements
Track Severe Weather on mobile